Aviation Digital Data Service (ADDS)

Output produced by METARs form (0250 UTC 19 October 2021)
found at http://www.aviationweather.gov/metar/data/
 
Forecast for: KMCI (KANSAS CITY/INTL, MO, US)
Text: KMCI 182320Z 1900/1924 17012KT P6SM SCT200
Forecast period: 0000 to 1500 UTC 19 October 2021
Forecast type: FROM: standard forecast or significant change
Winds: from the S (170 degrees) at 14 MPH (12 knots; 6.2 m/s)
Visibility: 6 or more miles (10+ km)
Ceiling: at least 12,000 feet AGL
Clouds: scattered clouds at 20000 feet AGL
Weather: no significant weather forecast for this period
Text: FM191500 19015G25KT P6SM SKC
Forecast period: 1500 to 2300 UTC 19 October 2021
Forecast type: FROM: standard forecast or significant change
Winds: from the S (190 degrees) at 17 MPH (15 knots; 7.7 m/s)
gusting to 29 MPH (25 knots; 12.9 m/s)
Visibility: 6 or more miles (10+ km)
Clouds: clear skies
Weather: no significant weather forecast for this period
Text: FM192300 18012KT P6SM SKC
Forecast period: 2300 UTC 19 October 2021 to 0000 UTC 20 October 2021
Forecast type: FROM: standard forecast or significant change
Winds: from the S (180 degrees) at 14 MPH (12 knots; 6.2 m/s)
Visibility: 6 or more miles (10+ km)
Clouds: clear skies
Weather: no significant weather forecast for this period